sensor_id;sensor_type;location;lat;lon;timestamp;pressure;altitude;pressure_sealevel;temperature;humidity
58662;BME280;44432;49.786;22.760;2023-04-25T00:00:05;98195.55;;;12.61;66.88
58662;BME280;44432;49.786;22.760;2023-04-25T00:02:56;98195.66;;;12.58;67.31
58662;BME280;44432;49.786;22.760;2023-04-25T00:05:26;98193.95;;;12.55;67.55
58662;BME280;44432;49.786;22.760;2023-04-25T00:07:57;98195.83;;;12.52;67.74
58662;BME280;44432;49.786;22.760;2023-04-25T00:10:26;98198.15;;;12.51;68.02
58662;BME280;44432;49.786;22.760;2023-04-25T00:12:55;98197.13;;;12.49;68.28
58662;BME280;44432;49.786;22.760;2023-04-25T00:15:25;98192.88;;;12.44;68.58
58662;BME280;44432;49.786;22.760;2023-04-25T00:17:54;98184.66;;;12.32;68.94
58662;BME280;44432;49.786;22.760;2023-04-25T00:20:23;98189.05;;;12.21;69.39
58662;BME280;44432;49.786;22.760;2023-04-25T00:22:52;98180.66;;;12.08;69.84
58662;BME280;44432;49.786;22.760;2023-04-25T00:25:22;98179.68;;;11.96;70.74
58662;BME280;44432;49.786;22.760;2023-04-25T00:27:51;98175.38;;;11.85;71.18
58662;BME280;44432;49.786;22.760;2023-04-25T00:30:20;98174.85;;;11.76;71.54
58662;BME280;44432;49.786;22.760;2023-04-25T00:32:49;98178.94;;;11.75;72.11
58662;BME280;44432;49.786;22.760;2023-04-25T00:35:18;98181.71;;;11.73;72.61
58662;BME280;44432;49.786;22.760;2023-04-25T00:37:47;98178.69;;;11.72;73.16
58662;BME280;44432;49.786;22.760;2023-04-25T00:40:16;98178.79;;;11.72;73.27
58662;BME280;44432;49.786;22.760;2023-04-25T00:42:45;98179.26;;;11.71;73.69
58662;BME280;44432;49.786;22.760;2023-04-25T00:45:15;98169.71;;;11.69;73.67
58662;BME280;44432;49.786;22.760;2023-04-25T00:47:44;98164.92;;;11.66;74.10
58662;BME280;44432;49.786;22.760;2023-04-25T00:50:13;98161.09;;;11.64;74.28
58662;BME280;44432;49.786;22.760;2023-04-25T00:52:43;98152.98;;;11.62;74.47
58662;BME280;44432;49.786;22.760;2023-04-25T00:55:12;98149.38;;;11.62;74.76
58662;BME280;44432;49.786;22.760;2023-04-25T00:57:43;98150.95;;;11.61;74.64
58662;BME280;44432;49.786;22.760;2023-04-25T01:00:12;98146.56;;;11.61;75.13
58662;BME280;44432;49.786;22.760;2023-04-25T01:02:42;98152.27;;;11.60;75.24
58662;BME280;44432;49.786;22.760;2023-04-25T01:05:12;98155.65;;;11.60;75.08
58662;BME280;44432;49.786;22.760;2023-04-25T01:07:41;98156.52;;;11.59;75.00
58662;BME280;44432;49.786;22.760;2023-04-25T01:10:10;98153.09;;;11.59;75.38
58662;BME280;44432;49.786;22.760;2023-04-25T01:12:39;98155.76;;;11.56;75.22
58662;BME280;44432;49.786;22.760;2023-04-25T01:15:09;98157.37;;;11.54;75.34
58662;BME280;44432;49.786;22.760;2023-04-25T01:17:38;98157.17;;;11.52;75.72
58662;BME280;44432;49.786;22.760;2023-04-25T01:20:09;98149.44;;;11.49;75.86
58662;BME280;44432;49.786;22.760;2023-04-25T01:22:39;98146.82;;;11.47;76.02
58662;BME280;44432;49.786;22.760;2023-04-25T01:25:09;98146.20;;;11.43;76.35
58662;BME280;44432;49.786;22.760;2023-04-25T01:27:38;98143.34;;;11.41;76.47
58662;BME280;44432;49.786;22.760;2023-04-25T01:30:09;98134.98;;;11.36;76.40
58662;BME280;44432;49.786;22.760;2023-04-25T01:32:38;98133.09;;;11.33;76.86
58662;BME280;44432;49.786;22.760;2023-04-25T01:35:09;98132.32;;;11.31;77.04
58662;BME280;44432;49.786;22.760;2023-04-25T01:37:39;98130.10;;;11.31;77.48
58662;BME280;44432;49.786;22.760;2023-04-25T01:40:09;98128.95;;;11.31;77.81
58662;BME280;44432;49.786;22.760;2023-04-25T01:42:39;98136.13;;;11.31;77.48
58662;BME280;44432;49.786;22.760;2023-04-25T01:45:10;98135.94;;;11.29;77.91
58662;BME280;44432;49.786;22.760;2023-04-25T01:47:39;98134.46;;;11.21;77.82
58662;BME280;44432;49.786;22.760;2023-04-25T01:50:10;98131.91;;;11.16;78.29
58662;BME280;44432;49.786;22.760;2023-04-25T01:52:39;98126.28;;;11.18;78.75
58662;BME280;44432;49.786;22.760;2023-04-25T01:55:09;98125.41;;;11.20;78.60
58662;BME280;44432;49.786;22.760;2023-04-25T01:57:38;98122.30;;;11.20;78.55
58662;BME280;44432;49.786;22.760;2023-04-25T02:00:08;98121.51;;;11.21;78.35
58662;BME280;44432;49.786;22.760;2023-04-25T02:02:37;98121.99;;;11.21;78.45
58662;BME280;44432;49.786;22.760;2023-04-25T02:05:07;98115.60;;;11.21;78.35
58662;BME280;44432;49.786;22.760;2023-04-25T02:07:36;98113.33;;;11.21;78.20
58662;BME280;44432;49.786;22.760;2023-04-25T02:10:06;98109.85;;;11.22;78.28
58662;BME280;44432;49.786;22.760;2023-04-25T02:12:35;98109.37;;;11.22;78.64
58662;BME280;44432;49.786;22.760;2023-04-25T02:15:05;98111.63;;;11.21;78.57
58662;BME280;44432;49.786;22.760;2023-04-25T02:17:35;98108.07;;;11.19;78.60
58662;BME280;44432;49.786;22.760;2023-04-25T02:20:04;98101.30;;;11.18;78.71
58662;BME280;44432;49.786;22.760;2023-04-25T02:22:34;98097.96;;;11.17;78.89
58662;BME280;44432;49.786;22.760;2023-04-25T02:25:03;98096.33;;;11.18;79.02
58662;BME280;44432;49.786;22.760;2023-04-25T02:27:32;98094.58;;;11.17;79.12
58662;BME280;44432;49.786;22.760;2023-04-25T02:30:02;98095.55;;;11.19;79.25
58662;BME280;44432;49.786;22.760;2023-04-25T02:35:02;98099.23;;;11.22;79.31
58662;BME280;44432;49.786;22.760;2023-04-25T02:37:32;98098.23;;;11.23;79.66
58662;BME280;44432;49.786;22.760;2023-04-25T02:40:02;98097.83;;;11.23;79.68
58662;BME280;44432;49.786;22.760;2023-04-25T02:42:32;98096.29;;;11.23;79.39
58662;BME280;44432;49.786;22.760;2023-04-25T02:45:01;98096.17;;;11.23;79.70
58662;BME280;44432;49.786;22.760;2023-04-25T02:47:30;98097.98;;;11.23;79.67
58662;BME280;44432;49.786;22.760;2023-04-25T02:49:59;98101.54;;;11.20;79.80
58662;BME280;44432;49.786;22.760;2023-04-25T02:52:28;98096.55;;;11.15;79.82
58662;BME280;44432;49.786;22.760;2023-04-25T02:54:58;98097.79;;;11.12;79.72
58662;BME280;44432;49.786;22.760;2023-04-25T02:57:27;98095.95;;;11.10;80.15
58662;BME280;44432;49.786;22.760;2023-04-25T02:59:56;98096.25;;;11.08;80.25
58662;BME280;44432;49.786;22.760;2023-04-25T03:02:25;98093.20;;;11.08;80.39
58662;BME280;44432;49.786;22.760;2023-04-25T03:04:54;98092.20;;;11.09;80.54
58662;BME280;44432;49.786;22.760;2023-04-25T03:07:23;98086.86;;;11.09;80.75
58662;BME280;44432;49.786;22.760;2023-04-25T03:09:52;98083.42;;;11.09;80.65
58662;BME280;44432;49.786;22.760;2023-04-25T03:12:21;98084.53;;;11.08;80.64
58662;BME280;44432;49.786;22.760;2023-04-25T03:14:50;98082.58;;;11.08;80.77
58662;BME280;44432;49.786;22.760;2023-04-25T03:17:19;98079.15;;;11.09;80.92
58662;BME280;44432;49.786;22.760;2023-04-25T03:19:48;98081.80;;;11.09;80.82
58662;BME280;44432;49.786;22.760;2023-04-25T03:22:17;98077.57;;;11.09;80.73
58662;BME280;44432;49.786;22.760;2023-04-25T03:24:46;98076.92;;;11.09;81.02
58662;BME280;44432;49.786;22.760;2023-04-25T03:27:15;98074.17;;;11.08;80.86
58662;BME280;44432;49.786;22.760;2023-04-25T03:29:45;98074.58;;;11.07;80.89
58662;BME280;44432;49.786;22.760;2023-04-25T03:32:14;98074.50;;;11.05;81.19
58662;BME280;44432;49.786;22.760;2023-04-25T03:34:43;98077.30;;;11.04;81.01
58662;BME280;44432;49.786;22.760;2023-04-25T03:37:12;98077.18;;;11.04;80.96
58662;BME280;44432;49.786;22.760;2023-04-25T03:39:41;98076.28;;;11.04;81.22
58662;BME280;44432;49.786;22.760;2023-04-25T03:42:10;98078.23;;;11.03;81.31
58662;BME280;44432;49.786;22.760;2023-04-25T03:44:39;98077.36;;;11.02;81.31
58662;BME280;44432;49.786;22.760;2023-04-25T03:47:08;98076.31;;;11.02;81.44
58662;BME280;44432;49.786;22.760;2023-04-25T03:49:37;98075.04;;;11.02;81.29
58662;BME280;44432;49.786;22.760;2023-04-25T03:52:06;98073.57;;;11.02;81.40
58662;BME280;44432;49.786;22.760;2023-04-25T03:54:35;98074.09;;;11.02;81.46
58662;BME280;44432;49.786;22.760;2023-04-25T03:57:04;98072.36;;;11.03;81.67
58662;BME280;44432;49.786;22.760;2023-04-25T03:59:34;98067.73;;;11.05;81.58
58662;BME280;44432;49.786;22.760;2023-04-25T04:02:03;98069.38;;;11.05;81.42
58662;BME280;44432;49.786;22.760;2023-04-25T04:04:32;98068.67;;;11.07;81.58
58662;BME280;44432;49.786;22.760;2023-04-25T04:07:01;98070.70;;;11.09;81.38
58662;BME280;44432;49.786;22.760;2023-04-25T04:09:30;98070.67;;;11.11;81.66
58662;BME280;44432;49.786;22.760;2023-04-25T04:11:59;98071.80;;;11.13;81.71
58662;BME280;44432;49.786;22.760;2023-04-25T04:14:29;98070.71;;;11.14;81.67
58662;BME280;44432;49.786;22.760;2023-04-25T04:16:58;98070.69;;;11.16;81.61
58662;BME280;44432;49.786;22.760;2023-04-25T04:19:28;98070.90;;;11.17;81.62
58662;BME280;44432;49.786;22.760;2023-04-25T04:21:57;98072.03;;;11.19;81.81
58662;BME280;44432;49.786;22.760;2023-04-25T04:24:26;98070.05;;;11.20;81.65
58662;BME280;44432;49.786;22.760;2023-04-25T04:26:55;98070.91;;;11.22;81.70
58662;BME280;44432;49.786;22.760;2023-04-25T04:29:24;98066.33;;;11.23;81.77
58662;BME280;44432;49.786;22.760;2023-04-25T04:31:53;98069.73;;;11.25;81.71
58662;BME280;44432;49.786;22.760;2023-04-25T04:34:22;98068.90;;;11.26;81.87
58662;BME280;44432;49.786;22.760;2023-04-25T04:36:53;98071.45;;;11.27;81.63
58662;BME280;44432;49.786;22.760;2023-04-25T04:39:22;98069.22;;;11.30;81.83
58662;BME280;44432;49.786;22.760;2023-04-25T04:41:51;98068.14;;;11.34;81.95
58662;BME280;44432;49.786;22.760;2023-04-25T04:44:21;98068.02;;;11.37;81.72
58662;BME280;44432;49.786;22.760;2023-04-25T04:46:50;98068.23;;;11.41;81.91
58662;BME280;44432;49.786;22.760;2023-04-25T04:49:19;98064.23;;;11.44;81.77
58662;BME280;44432;49.786;22.760;2023-04-25T04:51:48;98062.94;;;11.48;81.79
58662;BME280;44432;49.786;22.760;2023-04-25T04:54:17;98064.79;;;11.52;81.82
58662;BME280;44432;49.786;22.760;2023-04-25T04:56:46;98064.31;;;11.57;81.88
58662;BME280;44432;49.786;22.760;2023-04-25T04:59:16;98065.86;;;11.63;81.88
58662;BME280;44432;49.786;22.760;2023-04-25T05:01:45;98064.27;;;11.68;81.92
58662;BME280;44432;49.786;22.760;2023-04-25T05:04:14;98063.77;;;11.75;81.77
58662;BME280;44432;49.786;22.760;2023-04-25T05:06:43;98062.21;;;11.82;81.76
58662;BME280;44432;49.786;22.760;2023-04-25T05:09:12;98061.95;;;11.87;81.56
58662;BME280;44432;49.786;22.760;2023-04-25T05:11:42;98061.39;;;11.90;81.45
58662;BME280;44432;49.786;22.760;2023-04-25T05:14:12;98062.27;;;11.94;81.35
58662;BME280;44432;49.786;22.760;2023-04-25T05:16:41;98060.81;;;11.96;81.30
58662;BME280;44432;49.786;22.760;2023-04-25T05:19:11;98057.28;;;11.97;81.29
58662;BME280;44432;49.786;22.760;2023-04-25T05:21:40;98052.39;;;12.00;81.17
58662;BME280;44432;49.786;22.760;2023-04-25T05:24:10;98053.30;;;12.02;80.84
58662;BME280;44432;49.786;22.760;2023-04-25T05:26:40;98053.53;;;12.04;80.71
58662;BME280;44432;49.786;22.760;2023-04-25T05:29:09;98052.02;;;12.05;80.62
58662;BME280;44432;49.786;22.760;2023-04-25T05:31:38;98052.98;;;12.08;80.92
58662;BME280;44432;49.786;22.760;2023-04-25T05:34:07;98054.65;;;12.11;80.80
58662;BME280;44432;49.786;22.760;2023-04-25T05:36:36;98054.41;;;12.14;80.75
58662;BME280;44432;49.786;22.760;2023-04-25T05:39:05;98055.91;;;12.16;80.73
58662;BME280;44432;49.786;22.760;2023-04-25T05:41:36;98061.17;;;12.20;80.75
58662;BME280;44432;49.786;22.760;2023-04-25T05:44:05;98058.77;;;12.21;80.43
58662;BME280;44432;49.786;22.760;2023-04-25T05:46:34;98058.16;;;12.20;80.13
58662;BME280;44432;49.786;22.760;2023-04-25T05:49:03;98058.94;;;12.17;80.44
58662;BME280;44432;49.786;22.760;2023-04-25T05:51:32;98060.43;;;12.19;80.72
58662;BME280;44432;49.786;22.760;2023-04-25T05:54:01;98059.55;;;12.21;80.65
58662;BME280;44432;49.786;22.760;2023-04-25T05:56:30;98059.55;;;12.22;80.30
58662;BME280;44432;49.786;22.760;2023-04-25T05:59:00;98057.40;;;12.23;80.44
58662;BME280;44432;49.786;22.760;2023-04-25T06:01:29;98059.21;;;12.25;80.47
58662;BME280;44432;49.786;22.760;2023-04-25T06:03:58;98061.58;;;12.24;80.33
58662;BME280;44432;49.786;22.760;2023-04-25T06:06:27;98063.30;;;12.20;80.25
58662;BME280;44432;49.786;22.760;2023-04-25T06:08:56;98059.89;;;12.18;80.42
58662;BME280;44432;49.786;22.760;2023-04-25T06:11:25;98056.77;;;12.16;80.48
58662;BME280;44432;49.786;22.760;2023-04-25T06:13:54;98057.63;;;12.12;80.16
58662;BME280;44432;49.786;22.760;2023-04-25T06:16:23;98057.84;;;12.12;80.47
58662;BME280;44432;49.786;22.760;2023-04-25T06:18:53;98055.30;;;12.11;80.38
58662;BME280;44432;49.786;22.760;2023-04-25T06:21:22;98058.70;;;12.08;80.32
58662;BME280;44432;49.786;22.760;2023-04-25T06:23:51;98056.02;;;12.04;80.40
58662;BME280;44432;49.786;22.760;2023-04-25T06:26:20;98059.45;;;12.04;81.03
58662;BME280;44432;49.786;22.760;2023-04-25T06:28:49;98060.08;;;12.07;81.35
58662;BME280;44432;49.786;22.760;2023-04-25T06:31:18;98059.66;;;12.08;81.53
58662;BME280;44432;49.786;22.760;2023-04-25T06:33:47;98056.08;;;12.10;81.45
58662;BME280;44432;49.786;22.760;2023-04-25T06:36:17;98055.86;;;12.10;81.27
58662;BME280;44432;49.786;22.760;2023-04-25T06:38:46;98058.77;;;12.09;81.02
58662;BME280;44432;49.786;22.760;2023-04-25T06:41:15;98055.61;;;12.10;81.51
58662;BME280;44432;49.786;22.760;2023-04-25T06:43:44;98057.02;;;12.14;81.26
58662;BME280;44432;49.786;22.760;2023-04-25T06:46:13;98055.01;;;12.22;81.54
58662;BME280;44432;49.786;22.760;2023-04-25T06:48:42;98055.67;;;12.31;81.55
58662;BME280;44432;49.786;22.760;2023-04-25T06:51:11;98050.38;;;12.40;81.39
58662;BME280;44432;49.786;22.760;2023-04-25T06:53:41;98053.23;;;12.47;81.19
58662;BME280;44432;49.786;22.760;2023-04-25T06:56:10;98056.00;;;12.54;81.23
58662;BME280;44432;49.786;22.760;2023-04-25T06:58:39;98055.20;;;12.60;81.18
58662;BME280;44432;49.786;22.760;2023-04-25T07:01:08;98055.67;;;12.67;81.09
58662;BME280;44432;49.786;22.760;2023-04-25T07:03:37;98057.03;;;12.72;81.04
58662;BME280;44432;49.786;22.760;2023-04-25T07:06:07;98053.03;;;12.77;81.01
58662;BME280;44432;49.786;22.760;2023-04-25T07:08:36;98051.14;;;12.81;80.51
58662;BME280;44432;49.786;22.760;2023-04-25T07:11:05;98049.14;;;12.82;80.50
58662;BME280;44432;49.786;22.760;2023-04-25T07:13:34;98049.20;;;12.91;80.81
58662;BME280;44432;49.786;22.760;2023-04-25T07:16:03;98048.88;;;13.02;80.60
58662;BME280;44432;49.786;22.760;2023-04-25T07:18:33;98048.05;;;13.16;80.76
58662;BME280;44432;49.786;22.760;2023-04-25T07:21:02;98047.58;;;13.30;80.28
58662;BME280;44432;49.786;22.760;2023-04-25T07:23:31;98045.30;;;13.42;80.16
58662;BME280;44432;49.786;22.760;2023-04-25T07:26:00;98045.89;;;13.54;79.97
58662;BME280;44432;49.786;22.760;2023-04-25T07:28:29;98040.66;;;13.63;79.65
58662;BME280;44432;49.786;22.760;2023-04-25T07:30:58;98047.67;;;13.72;79.26
58662;BME280;44432;49.786;22.760;2023-04-25T07:33:27;98045.99;;;13.77;78.73
58662;BME280;44432;49.786;22.760;2023-04-25T07:35:56;98043.82;;;13.81;78.29
58662;BME280;44432;49.786;22.760;2023-04-25T07:38:25;98042.77;;;13.79;77.96
58662;BME280;44432;49.786;22.760;2023-04-25T07:40:55;98045.61;;;13.74;78.06
58662;BME280;44432;49.786;22.760;2023-04-25T07:43:24;98049.31;;;13.69;78.09
58662;BME280;44432;49.786;22.760;2023-04-25T07:45:53;98049.41;;;13.63;77.80
58662;BME280;44432;49.786;22.760;2023-04-25T07:48:22;98049.02;;;13.56;77.68
58662;BME280;44432;49.786;22.760;2023-04-25T07:50:51;98047.48;;;13.54;78.13
58662;BME280;44432;49.786;22.760;2023-04-25T07:53:19;98050.23;;;13.53;78.40
58662;BME280;44432;49.786;22.760;2023-04-25T07:55:49;98050.19;;;13.54;78.70
58662;BME280;44432;49.786;22.760;2023-04-25T07:58:19;98054.65;;;13.58;78.56
58662;BME280;44432;49.786;22.760;2023-04-25T08:00:49;98054.87;;;13.63;78.73
58662;BME280;44432;49.786;22.760;2023-04-25T08:03:18;98052.50;;;13.68;78.60
58662;BME280;44432;49.786;22.760;2023-04-25T08:05:49;98053.94;;;13.71;78.50
58662;BME280;44432;49.786;22.760;2023-04-25T08:08:18;98049.53;;;13.71;78.11
58662;BME280;44432;49.786;22.760;2023-04-25T08:10:47;98051.23;;;13.70;78.11
58662;BME280;44432;49.786;22.760;2023-04-25T08:13:16;98051.60;;;13.71;78.07
58662;BME280;44432;49.786;22.760;2023-04-25T08:15:46;98052.19;;;13.70;78.07
58662;BME280;44432;49.786;22.760;2023-04-25T08:18:15;98049.16;;;13.71;78.15
58662;BME280;44432;49.786;22.760;2023-04-25T08:20:44;98054.41;;;13.73;78.38
58662;BME280;44432;49.786;22.760;2023-04-25T08:23:13;98055.42;;;13.73;78.10
58662;BME280;44432;49.786;22.760;2023-04-25T08:25:42;98052.98;;;13.71;78.43
58662;BME280;44432;49.786;22.760;2023-04-25T08:28:11;98059.34;;;13.69;78.29
58662;BME280;44432;49.786;22.760;2023-04-25T08:30:40;98060.92;;;13.66;78.28
58662;BME280;44432;49.786;22.760;2023-04-25T08:33:10;98067.59;;;13.62;78.12
58662;BME280;44432;49.786;22.760;2023-04-25T08:35:39;98071.35;;;13.54;78.01
58662;BME280;44432;49.786;22.760;2023-04-25T08:38:08;98070.23;;;13.46;77.88
58662;BME280;44432;49.786;22.760;2023-04-25T08:40:38;98069.58;;;13.38;77.86
58662;BME280;44432;49.786;22.760;2023-04-25T08:43:07;98077.48;;;13.31;77.93
58662;BME280;44432;49.786;22.760;2023-04-25T08:45:39;98078.90;;;13.25;77.95
58662;BME280;44432;49.786;22.760;2023-04-25T08:48:10;98081.90;;;13.14;77.91
58662;BME280;44432;49.786;22.760;2023-04-25T08:50:40;98084.77;;;13.04;78.23
58662;BME280;44432;49.786;22.760;2023-04-25T08:53:09;98088.11;;;12.98;78.26
58662;BME280;44432;49.786;22.760;2023-04-25T08:55:44;98091.05;;;12.94;78.21
58662;BME280;44432;49.786;22.760;2023-04-25T08:58:14;98094.40;;;12.94;78.38
58662;BME280;44432;49.786;22.760;2023-04-25T09:00:43;98100.42;;;12.91;78.19
58662;BME280;44432;49.786;22.760;2023-04-25T09:03:12;98101.25;;;12.88;77.93
58662;BME280;44432;49.786;22.760;2023-04-25T09:05:41;98099.23;;;12.81;77.76
58662;BME280;44432;49.786;22.760;2023-04-25T09:08:10;98101.01;;;12.75;77.69
58662;BME280;44432;49.786;22.760;2023-04-25T09:10:40;98105.20;;;12.69;77.98
58662;BME280;44432;49.786;22.760;2023-04-25T09:13:09;98109.97;;;12.70;78.09
58662;BME280;44432;49.786;22.760;2023-04-25T09:15:47;98113.54;;;12.71;78.01
58662;BME280;44432;49.786;22.760;2023-04-25T09:18:27;98113.50;;;12.82;78.03
58662;BME280;44432;49.786;22.760;2023-04-25T09:20:56;98109.95;;;12.99;78.06
58662;BME280;44432;49.786;22.760;2023-04-25T09:23:26;98109.49;;;13.18;77.93
58662;BME280;44432;49.786;22.760;2023-04-25T09:25:56;98111.86;;;13.34;77.90
58662;BME280;44432;49.786;22.760;2023-04-25T09:28:25;98114.30;;;13.48;77.38
58662;BME280;44432;49.786;22.760;2023-04-25T09:30:56;98117.33;;;13.55;76.80
58662;BME280;44432;49.786;22.760;2023-04-25T09:33:29;98120.14;;;13.49;76.18
58662;BME280;44432;49.786;22.760;2023-04-25T09:36:02;98117.75;;;13.46;76.26
58662;BME280;44432;49.786;22.760;2023-04-25T09:38:32;98119.17;;;13.43;76.30
58662;BME280;44432;49.786;22.760;2023-04-25T09:41:01;98122.70;;;13.38;76.06
58662;BME280;44432;49.786;22.760;2023-04-25T09:43:30;98122.99;;;13.34;75.89
58662;BME280;44432;49.786;22.760;2023-04-25T09:46:00;98126.77;;;13.27;75.49
58662;BME280;44432;49.786;22.760;2023-04-25T09:48:29;98130.93;;;13.14;75.42
58662;BME280;44432;49.786;22.760;2023-04-25T09:51:08;98128.20;;;13.03;75.69
58662;BME280;44432;49.786;22.760;2023-04-25T09:53:38;98137.58;;;12.93;76.13
58662;BME280;44432;49.786;22.760;2023-04-25T09:56:08;98126.80;;;12.81;76.14
58662;BME280;44432;49.786;22.760;2023-04-25T09:58:38;98135.39;;;12.75;76.67
58662;BME280;44432;49.786;22.760;2023-04-25T10:01:07;98139.23;;;12.67;76.63
58662;BME280;44432;49.786;22.760;2023-04-25T10:03:38;98136.11;;;12.53;76.46
58662;BME280;44432;49.786;22.760;2023-04-25T10:06:10;98137.05;;;12.41;76.59
58662;BME280;44432;49.786;22.760;2023-04-25T10:08:40;98141.89;;;12.26;76.29
58662;BME280;44432;49.786;22.760;2023-04-25T10:11:10;98142.63;;;12.10;76.54
58662;BME280;44432;49.786;22.760;2023-04-25T10:13:42;98143.98;;;11.97;76.78
58662;BME280;44432;49.786;22.760;2023-04-25T10:16:12;98140.86;;;11.82;77.27
58662;BME280;44432;49.786;22.760;2023-04-25T10:18:41;98144.42;;;11.72;77.42
58662;BME280;44432;49.786;22.760;2023-04-25T10:21:10;98147.35;;;11.60;77.31
58662;BME280;44432;49.786;22.760;2023-04-25T10:23:40;98147.31;;;11.48;77.14
58662;BME280;44432;49.786;22.760;2023-04-25T10:26:10;98147.36;;;11.41;77.64
58662;BME280;44432;49.786;22.760;2023-04-25T10:31:23;98153.15;;;11.40;78.19
58662;BME280;44432;49.786;22.760;2023-04-25T10:33:52;98153.66;;;11.44;78.14
58662;BME280;44432;49.786;22.760;2023-04-25T10:36:22;98153.65;;;11.48;78.09
58662;BME280;44432;49.786;22.760;2023-04-25T10:38:52;98149.89;;;11.57;78.40
58662;BME280;44432;49.786;22.760;2023-04-25T10:41:22;98152.23;;;11.62;78.02
58662;BME280;44432;49.786;22.760;2023-04-25T10:43:58;98154.64;;;11.68;78.16
58662;BME280;44432;49.786;22.760;2023-04-25T10:46:28;98154.09;;;11.75;78.23
58662;BME280;44432;49.786;22.760;2023-04-25T10:48:59;98153.14;;;11.82;78.01
58662;BME280;44432;49.786;22.760;2023-04-25T10:51:28;98152.06;;;11.90;78.26
58662;BME280;44432;49.786;22.760;2023-04-25T10:54:00;98154.58;;;11.94;77.77
58662;BME280;44432;49.786;22.760;2023-04-25T10:56:30;98154.59;;;11.94;77.73
58662;BME280;44432;49.786;22.760;2023-04-25T10:59:10;98156.86;;;11.94;77.83
58662;BME280;44432;49.786;22.760;2023-04-25T11:01:40;98159.39;;;11.88;77.72
58662;BME280;44432;49.786;22.760;2023-04-25T11:04:22;98161.22;;;11.81;77.73
58662;BME280;44432;49.786;22.760;2023-04-25T11:06:55;98158.77;;;11.74;77.57
58662;BME280;44432;49.786;22.760;2023-04-25T11:09:26;98160.67;;;11.64;77.69
58662;BME280;44432;49.786;22.760;2023-04-25T11:11:57;98166.00;;;11.55;77.75
58662;BME280;44432;49.786;22.760;2023-04-25T11:14:26;98162.62;;;11.46;77.87
58662;BME280;44432;49.786;22.760;2023-04-25T11:16:55;98161.71;;;11.40;78.09
58662;BME280;44432;49.786;22.760;2023-04-25T11:19:25;98167.88;;;11.34;78.11
58662;BME280;44432;49.786;22.760;2023-04-25T11:21:56;98167.32;;;11.28;78.30
58662;BME280;44432;49.786;22.760;2023-04-25T11:24:26;98171.75;;;11.24;78.20
58662;BME280;44432;49.786;22.760;2023-04-25T11:26:56;98166.23;;;11.22;78.23
58662;BME280;44432;49.786;22.760;2023-04-25T11:29:27;98166.40;;;11.15;78.15
58662;BME280;44432;49.786;22.760;2023-04-25T11:31:56;98159.00;;;11.11;78.43
58662;BME280;44432;49.786;22.760;2023-04-25T11:34:26;98169.86;;;11.13;77.93
58662;BME280;44432;49.786;22.760;2023-04-25T11:36:58;98165.15;;;11.17;78.57
58662;BME280;44432;49.786;22.760;2023-04-25T11:39:28;98173.23;;;11.20;78.33
58662;BME280;44432;49.786;22.760;2023-04-25T11:41:57;98171.47;;;11.19;77.91
58662;BME280;44432;49.786;22.760;2023-04-25T11:44:26;98171.80;;;11.16;78.06
58662;BME280;44432;49.786;22.760;2023-04-25T11:46:55;98170.48;;;11.20;78.32
58662;BME280;44432;49.786;22.760;2023-04-25T11:49:24;98170.11;;;11.20;78.10
58662;BME280;44432;49.786;22.760;2023-04-25T11:51:59;98172.73;;;11.19;78.41
58662;BME280;44432;49.786;22.760;2023-04-25T11:54:28;98171.61;;;11.18;78.66
58662;BME280;44432;49.786;22.760;2023-04-25T11:56:57;98171.45;;;11.18;78.74
58662;BME280;44432;49.786;22.760;2023-04-25T11:59:26;98170.77;;;11.13;78.25
58662;BME280;44432;49.786;22.760;2023-04-25T12:01:55;98168.23;;;11.06;78.37
58662;BME280;44432;49.786;22.760;2023-04-25T12:04:25;98171.23;;;10.99;78.43
58662;BME280;44432;49.786;22.760;2023-04-25T12:06:54;98171.73;;;10.97;78.93
58662;BME280;44432;49.786;22.760;2023-04-25T12:09:28;98169.79;;;10.97;78.93
58662;BME280;44432;49.786;22.760;2023-04-25T12:11:58;98173.95;;;10.97;79.10
58662;BME280;44432;49.786;22.760;2023-04-25T12:14:30;98172.98;;;10.95;79.06
58662;BME280;44432;49.786;22.760;2023-04-25T12:17:01;98173.14;;;10.96;79.21
58662;BME280;44432;49.786;22.760;2023-04-25T12:19:33;98171.95;;;10.98;79.18
58662;BME280;44432;49.786;22.760;2023-04-25T12:22:02;98170.54;;;10.98;79.19
58662;BME280;44432;49.786;22.760;2023-04-25T12:24:33;98170.23;;;10.94;78.94
58662;BME280;44432;49.786;22.760;2023-04-25T12:27:03;98168.45;;;10.89;78.82
58662;BME280;44432;49.786;22.760;2023-04-25T12:29:32;98169.46;;;10.83;78.75
58662;BME280;44432;49.786;22.760;2023-04-25T12:32:02;98172.33;;;10.76;78.73
58662;BME280;44432;49.786;22.760;2023-04-25T12:34:31;98172.86;;;10.74;79.05
58662;BME280;44432;49.786;22.760;2023-04-25T12:37:03;98171.83;;;10.72;78.69
58662;BME280;44432;49.786;22.760;2023-04-25T12:39:32;98175.31;;;10.66;78.65
58662;BME280;44432;49.786;22.760;2023-04-25T12:42:01;98171.62;;;10.59;78.72
58662;BME280;44432;49.786;22.760;2023-04-25T12:44:31;98172.65;;;10.55;78.87
58662;BME280;44432;49.786;22.760;2023-04-25T12:47:00;98173.37;;;10.46;78.41
58662;BME280;44432;49.786;22.760;2023-04-25T12:49:30;98169.84;;;10.37;78.44
58662;BME280;44432;49.786;22.760;2023-04-25T12:51:59;98172.56;;;10.32;78.39
58662;BME280;44432;49.786;22.760;2023-04-25T12:54:28;98169.95;;;10.30;78.63
58662;BME280;44432;49.786;22.760;2023-04-25T12:56:58;98167.17;;;10.31;78.70
58662;BME280;44432;49.786;22.760;2023-04-25T12:59:27;98165.98;;;10.32;79.01
58662;BME280;44432;49.786;22.760;2023-04-25T13:01:56;98166.86;;;10.38;79.04
58662;BME280;44432;49.786;22.760;2023-04-25T13:04:25;98169.60;;;10.38;79.13
58662;BME280;44432;49.786;22.760;2023-04-25T13:06:54;98170.38;;;10.37;79.16